Time;durP1;ratioP1;P1;durP2;ratioP2;P2;SDS_P1;SDS_P2;PMS_P1;PMS_P2;Temp;Humidity;BMP_temperature;BMP_pressure;BME280_temperature;BME280_humidity;BME280_pressure;Samples;Min_cycle;Max_cycle;Signal;HPM_P1;HPM_P2
2021/10/18 00:00:01;;;;;;;0.10;0.10;;;;;;;;;;4994549;28;20034;-80
2021/10/18 00:02:26;;;;;;;2.00;1.90;;;;;;;;;;4994610;28;20343;-80
2021/10/18 00:04:51;;;;;;;1.15;1.05;;;;;;;;;;4994394;28;20029;-80
2021/10/18 00:07:17;;;;;;;0.65;0.65;;;;;;;;;;4994855;28;20467;-80
2021/10/18 00:09:42;;;;;;;0.30;0.30;;;;;;;;;;4994507;28;20466;-80
2021/10/18 00:12:07;;;;;;;0.52;0.40;;;;;;;;;;4994427;28;20037;-80
2021/10/18 00:14:33;;;;;;;1.00;1.00;;;;;;;;;;4976690;28;20505;-80
2021/10/18 00:16:58;;;;;;;0.10;0.10;;;;;;;;;;4994206;28;20030;-79
2021/10/18 00:19:24;;;;;;;0.30;0.30;;;;;;;;;;4994476;28;20018;-79
2021/10/18 00:21:49;;;;;;;0.40;0.40;;;;;;;;;;4994142;28;20427;-80
2021/10/18 00:24:14;;;;;;;0.30;0.30;;;;;;;;;;4994344;28;20018;-80
2021/10/18 00:26:39;;;;;;;0.60;0.60;;;;;;;;;;4994205;28;20092;-80
2021/10/18 00:29:05;;;;;;;0.20;0.20;;;;;;;;;;4994237;28;20045;-80
2021/10/18 00:31:30;;;;;;;0.10;0.10;;;;;;;;;;4994039;28;20426;-80
2021/10/18 00:33:55;;;;;;;0.28;0.28;;;;;;;;;;4994468;28;20054;-80
2021/10/18 00:36:21;;;;;;;0.10;0.10;;;;;;;;;;4994346;28;20045;-80
2021/10/18 00:38:46;;;;;;;1.73;1.48;;;;;;;;;;4994111;28;20022;-80
2021/10/18 00:41:11;;;;;;;0.30;0.30;;;;;;;;;;4993733;28;20019;-80
2021/10/18 00:43:39;;;;;;;0.90;0.77;;;;;;;;;;4994044;28;20092;-80
2021/10/18 00:46:04;;;;;;;0.10;0.10;;;;;;;;;;4996248;28;20046;-80
2021/10/18 00:48:29;;;;;;;0.03;0.03;;;;;;;;;;4998096;28;20417;-80
2021/10/18 00:50:56;;;;;;;1.27;1.02;;;;;;;;;;4997852;28;20041;-80
2021/10/18 00:53:25;;;;;;;0.47;0.47;;;;;;;;;;4997782;28;20529;-80
2021/10/18 00:55:51;;;;;;;0.38;0.38;;;;;;;;;;4997667;28;20494;-80
2021/10/18 00:58:16;;;;;;;0.60;0.60;;;;;;;;;;4997922;28;20062;-80
2021/10/18 01:00:41;;;;;;;0.52;0.52;;;;;;;;;;5025602;28;20028;-80
2021/10/18 01:03:07;;;;;;;0.30;0.30;;;;;;;;;;5037174;28;20109;-80
2021/10/18 01:05:35;;;;;;;1.23;0.88;;;;;;;;;;5037280;28;20088;-80
2021/10/18 01:08:00;;;;;;;0.03;0.03;;;;;;;;;;5036845;28;20462;-79
2021/10/18 01:10:26;;;;;;;0.20;0.20;;;;;;;;;;5037551;28;20025;-80
2021/10/18 01:12:51;;;;;;;0.47;0.38;;;;;;;;;;5036916;28;20095;-80
2021/10/18 01:15:16;;;;;;;0.32;0.32;;;;;;;;;;5037207;28;20080;-80
2021/10/18 01:17:41;;;;;;;0.77;0.77;;;;;;;;;;5037040;28;20071;-80
2021/10/18 01:20:13;;;;;;;0.55;0.55;;;;;;;;;;5036919;28;20137;-80
2021/10/18 01:22:39;;;;;;;1.52;1.27;;;;;;;;;;5036893;28;20017;-80
2021/10/18 01:25:04;;;;;;;0.43;0.43;;;;;;;;;;5036994;28;20612;-80
2021/10/18 01:27:29;;;;;;;0.10;0.10;;;;;;;;;;5036802;28;20033;-80
2021/10/18 01:29:55;;;;;;;0.38;0.30;;;;;;;;;;5036617;28;20029;-80
2021/10/18 01:32:20;;;;;;;4.10;2.70;;;;;;;;;;5036619;28;20033;-80
2021/10/18 01:34:45;;;;;;;0.15;0.15;;;;;;;;;;5036693;28;20033;-80
2021/10/18 01:37:10;;;;;;;0.40;0.40;;;;;;;;;;5036488;28;20347;-81
2021/10/18 01:39:36;;;;;;;0.20;0.20;;;;;;;;;;5036517;28;20131;-81
2021/10/18 01:42:01;;;;;;;0.10;0.10;;;;;;;;;;5036419;28;20053;-80
2021/10/18 01:44:26;;;;;;;0.10;0.10;;;;;;;;;;5036379;28;20167;-80
2021/10/18 01:46:52;;;;;;;1.17;1.08;;;;;;;;;;5035906;28;20045;-80
2021/10/18 01:49:17;;;;;;;1.58;1.08;;;;;;;;;;5036395;28;20469;-80
2021/10/18 01:51:42;;;;;;;1.23;0.90;;;;;;;;;;5018522;28;20033;-80
2021/10/18 01:54:07;;;;;;;0.25;0.25;;;;;;;;;;5036398;28;20426;-80
2021/10/18 01:56:34;;;;;;;0.40;0.40;;;;;;;;;;5035710;28;20080;-80
2021/10/18 01:58:59;;;;;;;0.20;0.20;;;;;;;;;;5035795;28;20029;-80
2021/10/18 02:01:25;;;;;;;1.17;1.00;;;;;;;;;;5036105;28;20468;-80
2021/10/18 02:03:50;;;;;;;0.25;0.25;;;;;;;;;;5035916;28;20033;-81
2021/10/18 02:06:15;;;;;;;0.50;0.50;;;;;;;;;;5036105;28;20145;-80
2021/10/18 02:08:41;;;;;;;1.17;1.10;;;;;;;;;;5036079;28;20024;-80
2021/10/18 02:11:06;;;;;;;0.20;0.20;;;;;;;;;;5035877;28;20457;-80
2021/10/18 02:13:31;;;;;;;0.15;0.15;;;;;;;;;;5035929;28;20025;-80
2021/10/18 02:15:57;;;;;;;0.40;0.40;;;;;;;;;;5035653;28;20385;-80
2021/10/18 02:18:22;;;;;;;1.25;0.85;;;;;;;;;;5035813;28;20033;-80
2021/10/18 02:20:47;;;;;;;1.35;1.25;;;;;;;;;;5035708;28;20057;-80
2021/10/18 02:23:13;;;;;;;0.32;0.32;;;;;;;;;;5036155;28;20029;-80
2021/10/18 02:25:38;;;;;;;0.80;0.80;;;;;;;;;;5035722;28;20045;-81
2021/10/18 02:28:03;;;;;;;0.17;0.17;;;;;;;;;;5035653;28;20421;-80
2021/10/18 02:30:29;;;;;;;2.58;1.05;;;;;;;;;;5035572;28;20028;-80
2021/10/18 02:32:54;;;;;;;0.30;0.30;;;;;;;;;;5035455;28;20108;-81
2021/10/18 02:35:19;;;;;;;0.28;0.28;;;;;;;;;;5035279;28;20024;-80
2021/10/18 02:37:45;;;;;;;0.32;0.32;;;;;;;;;;5035514;28;20068;-81
2021/10/18 02:40:10;;;;;;;1.33;0.93;;;;;;;;;;5035404;28;20393;-80
2021/10/18 02:42:36;;;;;;;0.55;0.55;;;;;;;;;;5035455;28;20060;-80
2021/10/18 02:45:01;;;;;;;0.20;0.20;;;;;;;;;;5035074;28;20033;-81
2021/10/18 02:47:26;;;;;;;0.40;0.40;;;;;;;;;;5035290;28;20042;-80
2021/10/18 02:49:52;;;;;;;0.57;0.57;;;;;;;;;;5035250;28;20025;-80
2021/10/18 02:52:17;;;;;;;1.02;1.02;;;;;;;;;;5035136;28;20116;-80
2021/10/18 02:54:42;;;;;;;2.25;1.50;;;;;;;;;;5035181;28;20105;-80
2021/10/18 02:57:07;;;;;;;0.28;0.28;;;;;;;;;;5035042;28;20021;-80
2021/10/18 02:59:33;;;;;;;1.40;1.30;;;;;;;;;;5035553;28;20022;-80
2021/10/18 03:01:58;;;;;;;0.15;0.15;;;;;;;;;;5034864;28;20084;-81
2021/10/18 03:04:23;;;;;;;0.63;0.63;;;;;;;;;;5035044;28;20025;-80
2021/10/18 03:06:49;;;;;;;0.10;0.10;;;;;;;;;;5034982;28;20476;-80
2021/10/18 03:09:14;;;;;;;0.55;0.55;;;;;;;;;;5034863;28;20040;-80
2021/10/18 03:11:39;;;;;;;0.30;0.30;;;;;;;;;;5034834;28;20444;-81
2021/10/18 03:14:04;;;;;;;2.35;1.85;;;;;;;;;;5034705;28;20022;-80
2021/10/18 03:16:30;;;;;;;1.60;1.50;;;;;;;;;;5034763;28;20108;-80
2021/10/18 03:18:55;;;;;;;1.75;1.60;;;;;;;;;;5034561;28;20458;-81
2021/10/18 03:21:21;;;;;;;2.50;1.08;;;;;;;;;;5034450;28;20025;-80
2021/10/18 03:23:46;;;;;;;0.65;0.65;;;;;;;;;;5034570;28;20037;-81
2021/10/18 03:26:11;;;;;;;0.90;0.90;;;;;;;;;;5034581;28;20029;-80
2021/10/18 03:28:37;;;;;;;0.20;0.20;;;;;;;;;;5034564;28;20505;-80
2021/10/18 03:31:02;;;;;;;0.00;0.00;;;;;;;;;;5034298;28;20042;-80
2021/10/18 03:33:37;;;;;;;0.80;0.73;;;;;;;;;;5034500;28;20381;-80
2021/10/18 03:36:03;;;;;;;1.38;1.33;;;;;;;;;;5034379;28;20045;-80
2021/10/18 03:38:29;;;;;;;1.25;1.10;;;;;;;;;;5034037;28;20543;-80
2021/10/18 03:40:54;;;;;;;0.57;0.57;;;;;;;;;;5034208;28;20025;-81
2021/10/18 03:43:19;;;;;;;1.23;1.13;;;;;;;;;;5034077;28;20025;-80
2021/10/18 03:45:45;;;;;;;0.55;0.55;;;;;;;;;;5033806;28;20421;-80
2021/10/18 03:48:10;;;;;;;0.88;0.88;;;;;;;;;;5034122;28;20022;-80
2021/10/18 03:50:35;;;;;;;2.00;1.10;;;;;;;;;;5034129;28;20033;-80
2021/10/18 03:53:00;;;;;;;0.10;0.10;;;;;;;;;;5033968;28;20469;-80
2021/10/18 03:55:26;;;;;;;0.57;0.57;;;;;;;;;;5034020;28;20021;-80
2021/10/18 03:57:51;;;;;;;0.85;0.85;;;;;;;;;;5033820;28;20030;-81
2021/10/18 04:00:16;;;;;;;1.33;1.23;;;;;;;;;;5033963;28;20386;-80
2021/10/18 04:02:42;;;;;;;0.20;0.20;;;;;;;;;;5033916;28;20025;-80
2021/10/18 04:05:07;;;;;;;0.10;0.10;;;;;;;;;;5034072;28;20104;-81
2021/10/18 04:07:32;;;;;;;1.42;1.33;;;;;;;;;;5033897;28;20037;-80
2021/10/18 04:09:58;;;;;;;1.23;1.13;;;;;;;;;;5033650;28;20032;-81
2021/10/18 04:12:23;;;;;;;0.28;0.28;;;;;;;;;;5033692;28;20033;-80
2021/10/18 04:14:48;;;;;;;1.10;0.85;;;;;;;;;;5033605;28;20049;-81
2021/10/18 04:17:14;;;;;;;0.90;0.90;;;;;;;;;;5033798;28;20022;-80
2021/10/18 04:19:39;;;;;;;0.95;0.95;;;;;;;;;;5033309;28;20021;-82
2021/10/18 04:22:04;;;;;;;0.20;0.20;;;;;;;;;;5033510;28;20433;-81
2021/10/18 04:24:29;;;;;;;1.15;1.05;;;;;;;;;;5033366;28;20105;-81
2021/10/18 04:26:55;;;;;;;0.60;0.60;;;;;;;;;;5033487;28;20030;-81
2021/10/18 04:29:20;;;;;;;0.38;0.38;;;;;;;;;;5033550;28;20040;-80
2021/10/18 04:31:45;;;;;;;0.80;0.80;;;;;;;;;;5015716;28;20045;-81
2021/10/18 04:34:10;;;;;;;0.73;0.73;;;;;;;;;;5033483;28;20037;-80
2021/10/18 04:36:36;;;;;;;0.80;0.80;;;;;;;;;;5033358;28;20038;-80
2021/10/18 04:39:02;;;;;;;0.50;0.50;;;;;;;;;;5033294;28;20026;-81
2021/10/18 04:41:27;;;;;;;1.02;1.02;;;;;;;;;;5033347;28;20116;-80
2021/10/18 04:43:52;;;;;;;1.50;1.17;;;;;;;;;;5033326;28;20116;-80
2021/10/18 04:46:18;;;;;;;1.48;1.30;;;;;;;;;;5033318;28;20049;-80
2021/10/18 04:48:43;;;;;;;1.83;1.60;;;;;;;;;;5033369;28;20109;-80
2021/10/18 04:51:08;;;;;;;1.08;1.02;;;;;;;;;;5032891;28;20477;-80
2021/10/18 04:53:34;;;;;;;0.32;0.32;;;;;;;;;;5033344;28;20021;-81
2021/10/18 04:55:59;;;;;;;0.82;0.82;;;;;;;;;;5033251;28;20045;-81
2021/10/18 04:58:24;;;;;;;1.75;0.70;;;;;;;;;;5033390;28;20071;-81
2021/10/18 05:00:55;;;;;;;0.98;0.98;;;;;;;;;;5033188;28;20018;-80
2021/10/18 05:03:20;;;;;;;2.85;1.95;;;;;;;;;;5033197;28;20101;-80
2021/10/18 05:05:45;;;;;;;0.68;0.68;;;;;;;;;;5033144;28;20132;-81
2021/10/18 05:08:12;;;;;;;1.48;1.38;;;;;;;;;;5033060;28;20099;-81
2021/10/18 05:10:38;;;;;;;0.15;0.15;;;;;;;;;;5033226;28;20040;-81
2021/10/18 05:13:04;;;;;;;0.65;0.65;;;;;;;;;;5033148;28;20041;-81
2021/10/18 05:15:30;;;;;;;0.52;0.52;;;;;;;;;;5033051;28;20036;-81
2021/10/18 05:17:55;;;;;;;0.52;0.52;;;;;;;;;;5032979;28;20033;-81
2021/10/18 05:20:20;;;;;;;1.48;1.10;;;;;;;;;;5033020;28;20061;-81
2021/10/18 05:22:46;;;;;;;1.33;1.23;;;;;;;;;;5033269;28;20021;-81
2021/10/18 05:25:11;;;;;;;0.93;0.90;;;;;;;;;;5032943;28;20075;-81
2021/10/18 05:27:37;;;;;;;0.30;0.30;;;;;;;;;;5032664;28;20116;-81
2021/10/18 05:30:03;;;;;;;0.75;0.75;;;;;;;;;;5032794;28;20381;-81
2021/10/18 05:32:28;;;;;;;1.13;1.08;;;;;;;;;;5034059;28;20052;-81
2021/10/18 05:34:54;;;;;;;0.28;0.28;;;;;;;;;;5036620;28;20124;-81
2021/10/18 05:37:19;;;;;;;0.15;0.15;;;;;;;;;;5036344;28;20029;-81
2021/10/18 05:39:44;;;;;;;1.25;0.88;;;;;;;;;;5036253;28;20079;-81
2021/10/18 05:42:09;;;;;;;0.98;0.95;;;;;;;;;;5036478;28;20037;-81
2021/10/18 05:44:35;;;;;;;0.17;0.17;;;;;;;;;;5036475;28;20025;-81
2021/10/18 05:47:00;;;;;;;0.77;0.77;;;;;;;;;;5036586;28;20064;-81
2021/10/18 05:49:25;;;;;;;1.10;1.10;;;;;;;;;;5036483;28;20038;-81
2021/10/18 05:51:51;;;;;;;0.80;0.80;;;;;;;;;;5036202;28;20065;-80
2021/10/18 05:54:16;;;;;;;1.10;0.52;;;;;;;;;;5036269;28;20072;-81
2021/10/18 05:56:41;;;;;;;0.93;0.57;;;;;;;;;;5036269;28;20116;-82
2021/10/18 05:59:06;;;;;;;0.00;0.00;;;;;;;;;;5026402;28;20015;-81
2021/10/18 06:01:32;;;;;;;0.75;0.75;;;;;;;;;;5005946;28;20104;-81
2021/10/18 06:03:59;;;;;;;1.45;1.38;;;;;;;;;;5007232;28;20034;-82
2021/10/18 06:06:24;;;;;;;0.90;0.75;;;;;;;;;;5001906;28;20053;-81
2021/10/18 06:08:50;;;;;;;0.98;0.70;;;;;;;;;;5006153;28;20049;-81
2021/10/18 06:11:16;;;;;;;0.68;0.68;;;;;;;;;;5005686;28;20042;-81
2021/10/18 06:13:42;;;;;;;3.75;1.67;;;;;;;;;;4995747;28;20022;-83
2021/10/18 06:16:07;;;;;;;1.15;0.93;;;;;;;;;;5004700;28;20022;-82
2021/10/18 06:18:32;;;;;;;0.77;0.63;;;;;;;;;;5012996;28;20390;-81
2021/10/18 06:20:57;;;;;;;0.35;0.35;;;;;;;;;;4998393;28;20037;-81
2021/10/18 06:23:23;;;;;;;0.20;0.20;;;;;;;;;;5016001;28;20034;-82
2021/10/18 06:25:48;;;;;;;1.30;1.23;;;;;;;;;;5015714;28;20069;-82
2021/10/18 06:28:14;;;;;;;1.27;1.17;;;;;;;;;;5015836;28;20018;-82
2021/10/18 06:30:40;;;;;;;0.85;0.52;;;;;;;;;;5015756;28;20040;-82
2021/10/18 06:33:05;;;;;;;0.17;0.17;;;;;;;;;;5014743;28;20049;-82
2021/10/18 06:35:31;;;;;;;0.32;0.32;;;;;;;;;;5012544;28;20493;-83
2021/10/18 06:37:57;;;;;;;0.30;0.30;;;;;;;;;;5007564;28;20095;-82
2021/10/18 06:40:22;;;;;;;0.65;0.65;;;;;;;;;;5009169;28;20062;-82
2021/10/18 06:42:47;;;;;;;28.63;2.30;;;;;;;;;;5013644;28;20372;-82
2021/10/18 06:45:13;;;;;;;0.85;0.85;;;;;;;;;;5009017;28;20061;-81
2021/10/18 06:47:38;;;;;;;1.00;1.00;;;;;;;;;;4995935;28;20034;-82
2021/10/18 06:50:04;;;;;;;0.13;0.13;;;;;;;;;;4988371;28;20383;-81
2021/10/18 06:52:34;;;;;;;1.30;1.20;;;;;;;;;;5005296;28;20088;-81
2021/10/18 06:55:00;;;;;;;0.80;0.80;;;;;;;;;;5006013;28;20106;-82
2021/10/18 06:57:25;;;;;;;0.60;0.50;;;;;;;;;;5003523;28;20029;-81
2021/10/18 06:59:51;;;;;;;0.40;0.40;;;;;;;;;;5005297;28;20022;-81
2021/10/18 07:02:16;;;;;;;0.20;0.20;;;;;;;;;;5004065;28;20054;-82
2021/10/18 07:04:41;;;;;;;2.42;2.15;;;;;;;;;;5005110;28;20076;-81
2021/10/18 07:07:07;;;;;;;0.85;0.68;;;;;;;;;;5004950;28;20033;-81
2021/10/18 07:09:32;;;;;;;0.10;0.10;;;;;;;;;;5001102;28;20489;-81
2021/10/18 07:11:57;;;;;;;0.65;0.57;;;;;;;;;;5003830;28;20382;-82
2021/10/18 07:14:23;;;;;;;0.80;0.80;;;;;;;;;;5006554;28;20022;-81
2021/10/18 07:16:49;;;;;;;2.75;1.02;;;;;;;;;;5004016;28;20424;-81
2021/10/18 07:19:14;;;;;;;0.82;0.82;;;;;;;;;;5008485;28;20445;-82
2021/10/18 07:21:41;;;;;;;0.40;0.40;;;;;;;;;;5004178;28;20022;-81
2021/10/18 07:24:07;;;;;;;0.52;0.52;;;;;;;;;;5004074;28;20030;-81
2021/10/18 07:26:32;;;;;;;1.33;1.23;;;;;;;;;;5005553;28;20025;-81
2021/10/18 07:28:58;;;;;;;0.50;0.50;;;;;;;;;;5003590;28;20502;-81
2021/10/18 07:31:23;;;;;;;2.67;2.00;;;;;;;;;;5004440;28;20030;-81
2021/10/18 07:33:48;;;;;;;5.55;3.60;;;;;;;;;;5005068;28;20443;-81
2021/10/18 07:36:23;;;;;;;3.20;2.92;;;;;;;;;;5003102;28;20110;-82
2021/10/18 07:38:49;;;;;;;15.50;2.10;;;;;;;;;;5014557;28;20037;-81
2021/10/18 07:41:15;;;;;;;3.63;2.10;;;;;;;;;;5014332;28;20040;-81
2021/10/18 07:43:40;;;;;;;7.18;5.10;;;;;;;;;;5012535;28;20022;-82
2021/10/18 07:46:06;;;;;;;3.53;3.22;;;;;;;;;;4994521;28;20058;-81
2021/10/18 07:48:31;;;;;;;1.58;1.48;;;;;;;;;;4994081;28;20031;-81
2021/10/18 07:50:56;;;;;;;7.70;3.60;;;;;;;;;;4994182;28;20041;-82
2021/10/18 07:53:22;;;;;;;0.70;0.70;;;;;;;;;;4994661;28;20030;-81
2021/10/18 07:55:47;;;;;;;4.38;1.45;;;;;;;;;;4993904;28;20041;-82
2021/10/18 07:58:12;;;;;;;3.90;1.58;;;;;;;;;;4977253;28;20051;-82
2021/10/18 08:00:38;;;;;;;6.07;3.08;;;;;;;;;;4994854;28;20085;-81
2021/10/18 08:03:03;;;;;;;1.40;1.30;;;;;;;;;;4994753;28;20117;-82
2021/10/18 08:05:28;;;;;;;1.00;0.57;;;;;;;;;;4994551;28;20113;-81
2021/10/18 08:07:55;;;;;;;1.25;1.17;;;;;;;;;;4994382;28;20022;-82
2021/10/18 08:10:23;;;;;;;2.17;1.90;;;;;;;;;;4994337;28;20022;-82
2021/10/18 08:12:50;;;;;;;1.63;1.52;;;;;;;;;;4993904;28;20487;-82
2021/10/18 08:15:15;;;;;;;2.13;1.95;;;;;;;;;;4994285;28;20029;-82
2021/10/18 08:17:40;;;;;;;2.95;1.63;;;;;;;;;;4999904;28;20034;-82
2021/10/18 08:20:06;;;;;;;0.30;0.30;;;;;;;;;;5005330;28;20041;-82
2021/10/18 08:22:31;;;;;;;1.55;1.45;;;;;;;;;;5003407;28;20409;-82
2021/10/18 08:24:57;;;;;;;0.88;0.88;;;;;;;;;;5004376;28;20443;-82
2021/10/18 08:27:22;;;;;;;2.40;2.05;;;;;;;;;;5001672;28;20037;-82
2021/10/18 08:29:47;;;;;;;1.65;1.40;;;;;;;;;;5000600;28;20026;-82
2021/10/18 08:32:12;;;;;;;3.55;1.67;;;;;;;;;;5005099;28;20046;-83
2021/10/18 08:34:38;;;;;;;1.55;1.45;;;;;;;;;;4999596;28;20034;-83
2021/10/18 08:37:04;;;;;;;2.63;1.63;;;;;;;;;;5002617;28;20011;-82
2021/10/18 08:42:16;;;;;;;1.50;1.40;;;;;;;;;;5006208;28;20041;-82
2021/10/18 08:44:42;;;;;;;1.17;1.08;;;;;;;;;;5008300;28;20049;-82
2021/10/18 08:47:07;;;;;;;0.90;0.90;;;;;;;;;;5010792;28;20050;-82
2021/10/18 08:49:32;;;;;;;1.05;0.95;;;;;;;;;;5012726;28;20025;-82
2021/10/18 08:51:58;;;;;;;0.50;0.50;;;;;;;;;;5012290;28;20116;-83
2021/10/18 08:54:23;;;;;;;3.58;1.85;;;;;;;;;;5012556;28;20034;-82
2021/10/18 08:56:48;;;;;;;2.35;2.15;;;;;;;;;;5012546;28;20378;-82
2021/10/18 08:59:16;;;;;;;1.00;1.00;;;;;;;;;;5012027;28;20062;-82
2021/10/18 09:01:46;;;;;;;1.88;1.27;;;;;;;;;;5011677;28;20438;-82
2021/10/18 09:04:12;;;;;;;0.68;0.68;;;;;;;;;;5012475;28;20030;-83
2021/10/18 09:06:43;;;;;;;2.03;1.85;;;;;;;;;;5014019;28;20034;-83
2021/10/18 09:09:08;;;;;;;4.28;1.05;;;;;;;;;;5015925;28;20110;-82
2021/10/18 09:11:33;;;;;;;2.28;1.67;;;;;;;;;;5013683;28;20054;-83
2021/10/18 09:14:00;;;;;;;2.58;1.65;;;;;;;;;;5010003;28;20478;-84
2021/10/18 09:16:25;;;;;;;1.75;1.65;;;;;;;;;;5011184;28;20102;-83
2021/10/18 09:19:17;;;;;;;1.33;1.23;;;;;;;;;;5035192;28;20056;-83
2021/10/18 09:21:49;;;;;;;0.47;0.47;;;;;;;;;;5032626;28;20038;-83
2021/10/18 09:24:35;;;;;;;0.55;0.55;;;;;;;;;;5035484;28;20405;-83
2021/10/18 09:27:02;;;;;;;1.48;1.35;;;;;;;;;;5035163;28;20029;-83
2021/10/18 09:29:39;;;;;;;0.82;0.82;;;;;;;;;;5035013;28;20452;-83
2021/10/18 09:32:05;;;;;;;3.53;2.28;;;;;;;;;;5036082;28;20037;-83
2021/10/18 09:34:32;;;;;;;8.75;1.58;;;;;;;;;;5035853;28;20040;-82
2021/10/18 09:37:04;;;;;;;3.92;1.20;;;;;;;;;;5035598;28;20432;-83
2021/10/18 09:39:29;;;;;;;2.45;1.92;;;;;;;;;;5035129;28;20044;-82
2021/10/18 09:42:03;;;;;;;0.73;0.73;;;;;;;;;;5034935;28;20033;-82
2021/10/18 09:47:50;;;;;;;8.77;2.08;;;;;;;;;;5025822;28;20049;-83
2021/10/18 10:54:10;;;;;;;1.95;1.23;;;;;;;;;;5033990;28;20045;-83
2021/10/18 10:56:47;;;;;;;1.05;0.80;;;;;;;;;;5034101;28;20466;-83
2021/10/18 10:59:24;;;;;;;1.60;1.50;;;;;;;;;;5033897;28;20033;-83
2021/10/18 11:01:58;;;;;;;2.08;1.80;;;;;;;;;;5015581;28;20424;-83
2021/10/18 11:04:29;;;;;;;0.65;0.65;;;;;;;;;;5034121;28;20402;-84
2021/10/18 11:06:55;;;;;;;0.93;0.90;;;;;;;;;;5034336;28;20028;-83
2021/10/18 11:09:39;;;;;;;3.28;1.65;;;;;;;;;;5033577;28;20464;-83
2021/10/18 11:12:06;;;;;;;0.28;0.28;;;;;;;;;;5033701;28;20087;-83
2021/10/18 11:14:31;;;;;;;0.43;0.43;;;;;;;;;;5033956;28;20073;-83
2021/10/18 11:16:56;;;;;;;0.65;0.30;;;;;;;;;;5034366;28;20036;-85
2021/10/18 11:19:22;;;;;;;0.40;0.40;;;;;;;;;;5034194;28;20031;-84
2021/10/18 11:21:57;;;;;;;1.45;1.10;;;;;;;;;;5033784;28;20091;-84
2021/10/18 11:24:23;;;;;;;2.17;1.75;;;;;;;;;;5033879;28;20079;-84
2021/10/18 11:26:52;;;;;;;0.35;0.30;;;;;;;;;;5030123;28;20413;-84
2021/10/18 11:29:17;;;;;;;0.57;0.57;;;;;;;;;;5032757;28;20021;-84
2021/10/18 11:31:44;;;;;;;1.05;1.02;;;;;;;;;;5032559;28;20044;-85
2021/10/18 11:34:11;;;;;;;0.40;0.40;;;;;;;;;;5033347;28;20099;-84
2021/10/18 11:36:43;;;;;;;0.65;0.50;;;;;;;;;;5032603;28;20025;-85
2021/10/18 11:39:09;;;;;;;0.75;0.75;;;;;;;;;;5032883;28;20037;-84
2021/10/18 11:41:53;;;;;;;0.30;0.30;;;;;;;;;;5032844;28;20492;-84
2021/10/18 11:44:18;;;;;;;1.95;1.13;;;;;;;;;;5032931;28;20037;-85
2021/10/18 11:46:43;;;;;;;0.32;0.20;;;;;;;;;;5032177;28;20057;-84
2021/10/18 11:49:08;;;;;;;0.95;0.93;;;;;;;;;;5032852;28;20588;-84
2021/10/18 11:51:34;;;;;;;1.02;0.73;;;;;;;;;;5033175;28;20037;-84
2021/10/18 11:53:59;;;;;;;1.02;0.93;;;;;;;;;;5015100;28;20038;-85
2021/10/18 11:56:24;;;;;;;0.17;0.17;;;;;;;;;;5032460;28;20462;-84
2021/10/18 11:58:50;;;;;;;1.52;0.57;;;;;;;;;;5032279;28;20359;-85
2021/10/18 12:01:15;;;;;;;0.60;0.60;;;;;;;;;;5032771;28;20058;-85
2021/10/18 12:03:41;;;;;;;0.32;0.32;;;;;;;;;;5032790;28;20018;-85
2021/10/18 12:06:10;;;;;;;1.45;1.35;;;;;;;;;;5032832;28;20029;-85
2021/10/18 12:08:37;;;;;;;0.38;0.38;;;;;;;;;;5032772;28;20033;-85
2021/10/18 12:11:07;;;;;;;1.42;0.52;;;;;;;;;;5032295;28;20034;-85
2021/10/18 12:13:36;;;;;;;0.05;0.05;;;;;;;;;;5032794;28;20029;-85
2021/10/18 12:16:04;;;;;;;0.13;0.13;;;;;;;;;;5032153;28;20091;-86
2021/10/18 12:18:29;;;;;;;0.47;0.43;;;;;;;;;;5032192;28;20025;-86
2021/10/18 12:20:58;;;;;;;0.00;0.00;;;;;;;;;;5032076;28;20045;-86
2021/10/18 12:23:26;;;;;;;0.20;0.20;;;;;;;;;;5032089;28;20041;-84
2021/10/18 12:25:59;;;;;;;0.17;0.17;;;;;;;;;;5032318;28;20480;-85
2021/10/18 12:28:24;;;;;;;0.82;0.57;;;;;;;;;;5032293;28;20040;-86
2021/10/18 12:30:49;;;;;;;0.20;0.20;;;;;;;;;;5031902;28;20033;-86
2021/10/18 12:33:15;;;;;;;9.43;0.32;;;;;;;;;;5032444;28;20014;-85
2021/10/18 12:35:40;;;;;;;0.17;0.15;;;;;;;;;;5031963;28;20449;-86
2021/10/18 12:38:12;;;;;;;0.20;0.20;;;;;;;;;;5032503;28;20041;-87
2021/10/18 12:40:41;;;;;;;0.20;0.20;;;;;;;;;;5032347;28;20052;-85
2021/10/18 12:43:24;;;;;;;0.30;0.30;;;;;;;;;;5014816;28;20120;-86
2021/10/18 12:45:49;;;;;;;0.47;0.45;;;;;;;;;;5026318;28;20046;-86
2021/10/18 12:48:20;;;;;;;0.10;0.10;;;;;;;;;;5012896;28;20117;-86
2021/10/18 12:50:47;;;;;;;0.05;0.05;;;;;;;;;;5013022;28;20038;-86
2021/10/18 12:53:25;;;;;;;0.00;0.00;;;;;;;;;;4995674;28;20018;-85
2021/10/18 12:55:51;;;;;;;0.00;0.00;;;;;;;;;;5012615;28;20041;-86
2021/10/18 12:58:18;;;;;;;0.55;0.32;;;;;;;;;;5013220;28;20038;-85
2021/10/18 13:00:43;;;;;;;0.10;0.10;;;;;;;;;;5012783;28;20064;-84
2021/10/18 13:03:08;;;;;;;0.13;0.13;;;;;;;;;;5012701;28;20109;-85
2021/10/18 13:05:45;;;;;;;0.00;0.00;;;;;;;;;;5004553;28;20034;-84
2021/10/18 13:08:11;;;;;;;0.35;0.35;;;;;;;;;;4993411;28;20033;-84
2021/10/18 13:10:38;;;;;;;0.15;0.15;;;;;;;;;;4992888;28;20486;-85
2021/10/18 13:13:14;;;;;;;0.10;0.10;;;;;;;;;;4993180;28;20022;-84
2021/10/18 13:15:40;;;;;;;0.00;0.00;;;;;;;;;;4975407;28;20034;-85
2021/10/18 13:18:06;;;;;;;0.00;0.00;;;;;;;;;;4993546;28;20027;-85
2021/10/18 13:20:31;;;;;;;0.60;0.40;;;;;;;;;;4992683;28;20092;-85
2021/10/18 13:22:57;;;;;;;0.75;0.40;;;;;;;;;;4992935;28;20070;-85
2021/10/18 13:25:23;;;;;;;0.17;0.10;;;;;;;;;;4993218;28;20364;-86
2021/10/18 13:27:49;;;;;;;7.93;0.73;;;;;;;;;;4993218;28;20101;-84
2021/10/18 13:30:15;;;;;;;0.00;0.00;;;;;;;;;;4970556;28;20635;-85
2021/10/18 13:32:40;;;;;;;0.05;0.05;;;;;;;;;;4988391;28;20046;-85
2021/10/18 13:35:06;;;;;;;0.00;0.00;;;;;;;;;;4990172;28;20030;-85
2021/10/18 13:37:32;;;;;;;0.00;0.00;;;;;;;;;;4990170;28;20104;-86
2021/10/18 13:39:57;;;;;;;0.38;0.10;;;;;;;;;;4990158;28;20041;-85
2021/10/18 13:42:23;;;;;;;0.00;0.00;;;;;;;;;;4990014;28;20054;-86
2021/10/18 13:44:48;;;;;;;0.30;0.30;;;;;;;;;;4989974;28;20031;-85
2021/10/18 13:47:13;;;;;;;0.10;0.10;;;;;;;;;;4995422;28;20034;-85
2021/10/18 13:49:39;;;;;;;0.10;0.10;;;;;;;;;;4998904;28;20093;-85
2021/10/18 13:52:04;;;;;;;0.10;0.10;;;;;;;;;;4992633;28;20394;-85
2021/10/18 13:54:30;;;;;;;0.38;0.38;;;;;;;;;;4991777;28;20086;-85
2021/10/18 13:56:55;;;;;;;0.05;0.05;;;;;;;;;;4992711;28;20088;-85
2021/10/18 13:59:20;;;;;;;0.00;0.00;;;;;;;;;;4992262;28;20062;-83
2021/10/18 14:01:46;;;;;;;0.10;0.10;;;;;;;;;;4992342;28;20128;-85
2021/10/18 14:04:12;;;;;;;0.43;0.40;;;;;;;;;;4992981;28;20180;-85
2021/10/18 14:06:38;;;;;;;0.52;0.47;;;;;;;;;;4992907;28;20042;-85
2021/10/18 14:09:03;;;;;;;0.00;0.00;;;;;;;;;;4992588;28;20034;-85
2021/10/18 14:11:28;;;;;;;0.00;0.00;;;;;;;;;;4991908;28;20038;-85
2021/10/18 14:13:54;;;;;;;0.10;0.10;;;;;;;;;;4992544;28;20030;-85
2021/10/18 14:16:19;;;;;;;0.20;0.20;;;;;;;;;;4992775;28;20062;-84
2021/10/18 14:18:44;;;;;;;0.73;0.70;;;;;;;;;;4991643;28;20077;-84
2021/10/18 14:21:11;;;;;;;0.25;0.25;;;;;;;;;;4991708;28;20038;-85
2021/10/18 14:23:36;;;;;;;0.00;0.00;;;;;;;;;;4990450;28;20042;-85
2021/10/18 14:26:02;;;;;;;0.03;0.03;;;;;;;;;;4991986;28;20073;-85
2021/10/18 14:28:28;;;;;;;0.00;0.00;;;;;;;;;;4992614;28;20040;-83
2021/10/18 14:30:54;;;;;;;0.17;0.17;;;;;;;;;;4991684;28;20034;-84
2021/10/18 14:33:19;;;;;;;0.20;0.20;;;;;;;;;;4991866;28;20458;-82
2021/10/18 14:35:44;;;;;;;0.55;0.25;;;;;;;;;;4992591;28;20443;-85
2021/10/18 14:38:09;;;;;;;0.10;0.10;;;;;;;;;;4992242;28;20162;-85
2021/10/18 14:40:35;;;;;;;0.32;0.32;;;;;;;;;;4991806;28;20085;-86
2021/10/18 14:43:00;;;;;;;0.30;0.30;;;;;;;;;;4992113;28;20382;-84
2021/10/18 14:45:26;;;;;;;1.00;0.45;;;;;;;;;;4991192;28;20107;-83
2021/10/18 14:47:51;;;;;;;0.00;0.00;;;;;;;;;;4992327;28;20052;-85
2021/10/18 14:50:16;;;;;;;0.08;0.08;;;;;;;;;;4990725;28;20164;-85
2021/10/18 14:52:42;;;;;;;0.05;0.05;;;;;;;;;;4990821;28;20406;-85
2021/10/18 14:55:08;;;;;;;0.20;0.20;;;;;;;;;;4992262;28;20061;-85
2021/10/18 14:57:33;;;;;;;0.03;0.03;;;;;;;;;;4991939;28;20035;-84
2021/10/18 14:59:59;;;;;;;0.15;0.15;;;;;;;;;;4991807;28;20042;-84
2021/10/18 15:02:26;;;;;;;0.28;0.28;;;;;;;;;;4991930;28;20481;-85
2021/10/18 15:04:53;;;;;;;0.17;0.17;;;;;;;;;;4991198;28;20394;-85
2021/10/18 15:07:19;;;;;;;2.08;1.23;;;;;;;;;;4991706;28;20034;-85
2021/10/18 15:09:44;;;;;;;0.08;0.08;;;;;;;;;;4991679;28;20076;-85
2021/10/18 15:12:09;;;;;;;0.30;0.30;;;;;;;;;;4991045;28;20104;-84
2021/10/18 15:14:34;;;;;;;0.10;0.10;;;;;;;;;;4991716;28;20042;-85
2021/10/18 15:17:00;;;;;;;0.00;0.00;;;;;;;;;;4991611;28;20023;-85
2021/10/18 15:19:26;;;;;;;0.00;0.00;;;;;;;;;;4991444;28;20034;-84
2021/10/18 15:21:51;;;;;;;1.40;1.13;;;;;;;;;;4990952;28;20046;-85
2021/10/18 15:24:20;;;;;;;0.00;0.00;;;;;;;;;;4991126;28;20097;-84
2021/10/18 15:26:45;;;;;;;0.10;0.10;;;;;;;;;;4991032;28;20030;-85
2021/10/18 15:29:11;;;;;;;0.22;0.13;;;;;;;;;;4991683;28;20204;-85
2021/10/18 15:31:36;;;;;;;0.20;0.20;;;;;;;;;;4990168;28;20027;-84
2021/10/18 15:34:03;;;;;;;0.20;0.20;;;;;;;;;;4990395;28;20038;-85
2021/10/18 15:36:28;;;;;;;0.10;0.10;;;;;;;;;;4990704;28;20041;-85
2021/10/18 15:38:54;;;;;;;0.00;0.00;;;;;;;;;;4990823;28;20026;-85
2021/10/18 15:41:19;;;;;;;0.00;0.00;;;;;;;;;;4990187;28;20077;-85
2021/10/18 15:43:44;;;;;;;0.28;0.25;;;;;;;;;;4990659;28;20080;-85
2021/10/18 15:46:10;;;;;;;0.38;0.20;;;;;;;;;;4990290;28;20105;-87